Time;durP1;ratioP1;P1;durP2;ratioP2;P2;SDS_P1;SDS_P2;PMS_P1;PMS_P2;Temp;Humidity;BMP_temperature;BMP_pressure;BME280_temperature;BME280_humidity;BME280_pressure;Samples;Min_cycle;Max_cycle;Signal;HPM_P1;HPM_P2
2023/08/20 00:03:08;;;;;;;0.90;0.90;;;;;;;15.20;90.88;101738.88;10444834;28;20053;-72
2023/08/20 00:08:10;;;;;;;1.65;0.85;;;;;;;15.14;90.66;101735.34;10442532;28;20036;-72
2023/08/20 00:13:13;;;;;;;2.15;1.30;;;;;;;15.17;89.99;101734.75;10444660;28;20045;-73
2023/08/20 00:18:15;;;;;;;1.27;1.00;;;;;;;15.04;90.30;101730.69;10456548;28;20041;-73
2023/08/20 00:23:18;;;;;;;1.65;0.70;;;;;;;15.10;90.06;101728.72;10447413;28;20042;-73
2023/08/20 00:28:20;;;;;;;2.38;0.90;;;;;;;15.07;89.63;101729.28;10442835;28;20041;-73
2023/08/20 00:33:22;;;;;;;1.20;0.90;;;;;;;15.07;89.91;101720.97;10441406;28;20048;-72
2023/08/20 00:38:25;;;;;;;1.90;0.98;;;;;;;15.09;89.08;101718.75;10445693;28;20618;-73
2023/08/20 00:43:27;;;;;;;1.33;0.70;;;;;;;15.12;88.95;101732.03;10440309;28;20049;-73
2023/08/20 00:48:29;;;;;;;1.10;0.80;;;;;;;15.10;88.98;101717.69;10439326;28;20056;-73
2023/08/20 00:53:31;;;;;;;1.95;1.15;;;;;;;15.05;88.21;101715.75;10443734;28;20041;-73
2023/08/20 00:58:34;;;;;;;0.90;0.70;;;;;;;15.05;88.91;101709.38;10440252;28;20045;-72
2023/08/20 01:03:36;;;;;;;0.88;0.82;;;;;;;14.96;88.75;101706.41;10440641;28;20057;-72
2023/08/20 01:08:40;;;;;;;2.25;1.08;;;;;;;14.86;88.74;101709.22;10426134;28;20033;-72
2023/08/20 01:13:42;;;;;;;1.20;1.10;;;;;;;14.83;89.15;101704.25;10442196;28;20045;-72
2023/08/20 01:18:44;;;;;;;1.10;0.90;;;;;;;14.88;88.17;101712.50;10442329;28;20049;-72
2023/08/20 01:23:57;;;;;;;1.38;1.00;;;;;;;14.84;87.97;101713.38;10423739;28;20052;-73
2023/08/20 01:28:59;;;;;;;0.80;0.80;;;;;;;14.82;87.45;101715.59;10408465;28;20041;-73
2023/08/20 01:34:02;;;;;;;1.73;0.70;;;;;;;14.85;86.82;101712.25;10441430;28;20045;-73
2023/08/20 01:39:04;;;;;;;1.55;1.10;;;;;;;14.80;86.26;101710.34;10442886;28;20037;-73
2023/08/20 01:44:07;;;;;;;0.60;0.60;;;;;;;14.83;85.98;101700.66;10438351;28;20042;-73
2023/08/20 01:49:09;;;;;;;0.95;0.90;;;;;;;14.76;85.50;101701.81;10425519;28;20037;-72
2023/08/20 01:54:11;;;;;;;4.38;1.60;;;;;;;14.78;84.98;101696.00;10426544;28;20068;-72
2023/08/20 01:59:14;;;;;;;1.50;1.00;;;;;;;14.79;84.40;101711.47;10444643;28;20052;-72
2023/08/20 02:04:16;;;;;;;1.48;1.10;;;;;;;14.76;83.64;101706.50;10474965;28;20455;-73
2023/08/20 02:09:19;;;;;;;1.52;0.85;;;;;;;14.74;83.61;101708.72;10442434;28;20052;-73
2023/08/20 02:14:21;;;;;;;0.85;0.85;;;;;;;14.76;83.50;101710.09;10442539;28;20046;-72
2023/08/20 02:19:24;;;;;;;1.10;1.00;;;;;;;14.70;83.04;101716.75;10443005;28;20061;-72
2023/08/20 02:24:28;;;;;;;1.83;0.98;;;;;;;14.66;81.93;101712.06;10447870;28;20519;-72
2023/08/20 02:29:30;;;;;;;2.15;0.82;;;;;;;14.71;81.82;101712.88;10447700;28;20057;-72
2023/08/20 02:34:32;;;;;;;1.55;1.00;;;;;;;14.71;81.90;101710.09;10449173;28;20068;-72
2023/08/20 02:39:34;;;;;;;3.13;0.88;;;;;;;14.66;81.46;101706.53;10430142;28;20044;-72
2023/08/20 02:44:37;;;;;;;1.35;1.00;;;;;;;14.69;80.91;101722.56;10443299;28;20045;-72
2023/08/20 02:49:39;;;;;;;1.20;0.82;;;;;;;14.73;80.69;101716.16;10447236;28;20041;-71
2023/08/20 02:54:42;;;;;;;2.25;1.10;;;;;;;14.80;80.79;101723.34;10447719;28;20060;-72
2023/08/20 02:59:44;;;;;;;2.30;1.00;;;;;;;14.92;80.21;101726.59;10447531;28;20144;-72
2023/08/20 03:04:46;;;;;;;3.70;1.05;;;;;;;14.89;80.24;101721.63;10446638;28;20041;-72
2023/08/20 03:09:49;;;;;;;1.75;0.88;;;;;;;14.81;80.21;101725.00;10455492;28;20545;-72
2023/08/20 03:14:51;;;;;;;3.20;1.10;;;;;;;15.09;78.81;101716.81;10446713;28;20049;-73
2023/08/20 03:19:55;;;;;;;1.52;1.02;;;;;;;15.29;78.02;101713.13;10431215;28;20057;-72
2023/08/20 03:24:58;;;;;;;1.10;1.00;;;;;;;15.74;76.39;101705.59;10432117;28;20052;-72
2023/08/20 03:30:00;;;;;;;1.23;1.02;;;;;;;16.14;74.13;101703.56;10448598;28;20048;-72
2023/08/20 03:35:03;;;;;;;2.65;0.93;;;;;;;15.90;75.55;101712.66;10442084;28;20136;-72
2023/08/20 03:40:06;;;;;;;2.00;0.85;;;;;;;16.50;72.75;101709.56;10446794;28;20503;-72
2023/08/20 03:45:09;;;;;;;2.92;1.40;;;;;;;15.50;76.03;101699.16;10441322;28;20423;-72
2023/08/20 03:50:11;;;;;;;0.95;0.88;;;;;;;15.76;75.93;101697.00;10446175;28;20068;-72
2023/08/20 03:55:13;;;;;;;1.83;1.45;;;;;;;16.63;71.94;101689.44;10425451;28;20049;-72
2023/08/20 04:00:16;;;;;;;3.85;1.15;;;;;;;16.61;72.12;101691.69;10479116;28;20045;-72
2023/08/20 04:05:18;;;;;;;3.72;1.50;;;;;;;16.43;72.07;101693.28;10444904;28;20420;-72
2023/08/20 04:10:20;;;;;;;3.00;0.93;;;;;;;16.34;71.64;101697.84;10437510;28;20056;-72
2023/08/20 04:15:22;;;;;;;1.52;0.68;;;;;;;16.68;69.29;101700.50;10417970;28;20045;-73
2023/08/20 04:20:25;;;;;;;1.90;0.90;;;;;;;17.35;67.02;101717.84;10445313;28;20047;-73
2023/08/20 04:25:27;;;;;;;0.30;0.30;;;;;;;17.94;64.53;101719.16;10438233;28;20057;-72
2023/08/20 04:30:29;;;;;;;3.63;1.00;;;;;;;18.81;61.55;101711.97;10431932;28;20045;-73
2023/08/20 04:35:32;;;;;;;4.05;1.00;;;;;;;18.78;61.19;101721.75;10473957;28;20052;-72
2023/08/20 04:40:34;;;;;;;1.17;0.80;;;;;;;18.55;61.32;101719.97;10447957;28;20037;-73
2023/08/20 04:45:36;;;;;;;1.85;1.05;;;;;;;18.62;60.23;101729.56;10443714;28;20045;-72
2023/08/20 04:50:39;;;;;;;1.27;0.90;;;;;;;19.42;58.57;101730.88;10430021;28;20680;-72
2023/08/20 04:55:41;;;;;;;1.48;1.02;;;;;;;19.43;57.92;101737.28;10442713;28;20048;-73
2023/08/20 05:00:44;;;;;;;1.80;1.17;;;;;;;19.04;58.15;101735.94;10443452;28;20042;-72
2023/08/20 05:05:50;;;;;;;0.35;0.35;;;;;;;18.57;58.83;101743.56;10438939;28;20046;-73
2023/08/20 05:10:52;;;;;;;1.65;1.38;;;;;;;18.66;58.55;101752.84;10420525;28;20488;-73
2023/08/20 05:15:54;;;;;;;2.03;0.80;;;;;;;18.61;57.17;101744.59;10444333;28;20044;-73
2023/08/20 05:20:56;;;;;;;3.05;0.70;;;;;;;18.99;57.01;101733.28;10440899;28;20045;-73
2023/08/20 05:25:58;;;;;;;1.30;0.50;;;;;;;19.03;54.98;101733.47;10441904;28;20060;-73
2023/08/20 05:31:03;;;;;;;3.65;0.90;;;;;;;18.80;55.39;101730.63;10442028;28;20060;-74
2023/08/20 05:36:06;;;;;;;2.38;1.27;;;;;;;19.82;53.87;101717.97;10442760;28;20415;-73
2023/08/20 05:41:09;;;;;;;1.27;0.90;;;;;;;20.14;52.55;101713.25;10457381;28;20057;-73
2023/08/20 05:46:11;;;;;;;1.92;0.90;;;;;;;18.88;55.47;101737.41;10443488;28;20037;-73
2023/08/20 05:51:14;;;;;;;2.33;1.10;;;;;;;17.91;58.61;101736.44;10435027;28;20412;-73
2023/08/20 05:56:16;;;;;;;2.00;1.00;;;;;;;17.65;58.63;101730.44;10443326;28;20109;-73
2023/08/20 06:01:18;;;;;;;2.83;1.30;;;;;;;18.14;56.88;101736.59;10450068;28;20045;-73
2023/08/20 06:06:21;;;;;;;2.08;0.80;;;;;;;17.32;58.42;101734.28;10451069;28;20037;-73
2023/08/20 06:11:23;;;;;;;1.58;0.50;;;;;;;17.60;56.74;101736.09;10449184;28;20041;-73
2023/08/20 06:16:26;;;;;;;2.40;0.98;;;;;;;18.95;53.72;101738.63;10450160;28;20419;-73
2023/08/20 06:21:28;;;;;;;1.27;1.05;;;;;;;19.45;52.69;101729.47;10450474;28;20053;-73
2023/08/20 06:26:30;;;;;;;2.45;0.98;;;;;;;20.32;49.34;101716.97;10450948;28;20048;-73
2023/08/20 06:31:32;;;;;;;1.42;0.70;;;;;;;18.61;54.05;101741.81;10450253;28;20527;-73
2023/08/20 06:36:35;;;;;;;1.02;0.75;;;;;;;18.46;53.73;101719.88;10450807;28;20428;-73
2023/08/20 06:41:37;;;;;;;3.22;1.35;;;;;;;18.65;53.05;101717.03;10448597;28;20048;-73
2023/08/20 06:46:46;;;;;;;2.42;0.80;;;;;;;19.96;49.33;101715.13;10426043;28;20041;-73
2023/08/20 06:51:48;;;;;;;2.10;0.93;;;;;;;20.71;48.39;101707.78;10449815;28;20052;-73
2023/08/20 06:56:50;;;;;;;1.75;0.98;;;;;;;21.08;47.11;101700.81;10448621;28;20037;-73
2023/08/20 07:01:53;;;;;;;0.57;0.50;;;;;;;20.55;48.36;101717.72;10456856;28;20412;-73
2023/08/20 07:06:55;;;;;;;1.55;0.90;;;;;;;20.40;47.99;101716.97;10450043;28;20061;-74
2023/08/20 07:11:57;;;;;;;1.30;0.70;;;;;;;20.81;48.84;101713.03;10448358;28;20045;-74
2023/08/20 07:17:00;;;;;;;0.82;0.82;;;;;;;20.72;47.36;101712.22;10444008;28;20041;-74
2023/08/20 07:22:02;;;;;;;1.17;0.80;;;;;;;21.57;45.84;101721.06;10446092;28;20041;-75
2023/08/20 07:27:10;;;;;;;0.85;0.65;;;;;;;21.01;47.34;101717.22;10448682;28;20041;-75
2023/08/20 07:32:13;;;;;;;1.67;1.15;;;;;;;21.39;46.23;101708.25;10448317;28;20064;-74
2023/08/20 07:37:15;;;;;;;1.08;0.77;;;;;;;21.20;46.67;101716.91;10447071;28;20054;-77
2023/08/20 07:42:18;;;;;;;3.13;0.90;;;;;;;21.65;46.15;101711.84;10447323;28;20060;-75
2023/08/20 07:47:20;;;;;;;1.95;0.80;;;;;;;21.03;47.26;101712.94;10445239;28;20060;-75
2023/08/20 07:52:22;;;;;;;2.58;1.17;;;;;;;19.53;50.12;101714.78;10445107;28;20042;-76
2023/08/20 07:57:24;;;;;;;0.85;0.70;;;;;;;20.57;49.37;101719.06;10444456;28;20068;-76
2023/08/20 08:02:27;;;;;;;1.30;0.60;;;;;;;20.99;47.28;101711.13;10417049;28;20042;-75
2023/08/20 08:07:29;;;;;;;1.48;0.80;;;;;;;22.27;45.95;101705.81;10442424;28;20053;-75
2023/08/20 08:12:31;;;;;;;0.90;0.60;;;;;;;21.85;44.95;101710.31;10446659;28;20060;-75
2023/08/20 08:17:34;;;;;;;0.80;0.70;;;;;;;20.70;47.00;101709.75;10445422;28;20033;-76
2023/08/20 08:22:36;;;;;;;0.60;0.60;;;;;;;20.92;46.73;101713.56;10444714;28;20084;-76
2023/08/20 08:27:38;;;;;;;1.42;0.70;;;;;;;21.00;46.14;101707.16;10444228;28;20037;-75
2023/08/20 08:32:40;;;;;;;0.88;0.75;;;;;;;20.09;49.32;101711.41;10447021;28;20046;-74
2023/08/20 08:37:43;;;;;;;0.77;0.70;;;;;;;20.93;46.29;101707.66;10443820;28;20044;-74
2023/08/20 08:42:52;;;;;;;1.15;0.88;;;;;;;21.26;45.20;101710.03;10445499;28;20404;-73
2023/08/20 08:47:55;;;;;;;1.00;0.70;;;;;;;22.13;44.94;101699.63;10442602;28;20030;-73
2023/08/20 08:52:57;;;;;;;1.05;0.80;;;;;;;21.80;44.13;101691.78;10441377;28;20052;-72
2023/08/20 08:57:59;;;;;;;1.92;0.70;;;;;;;20.91;44.83;101695.19;10440536;28;20060;-74
2023/08/20 09:03:01;;;;;;;1.27;0.90;;;;;;;20.70;46.43;101690.22;10445006;28;20416;-74
2023/08/20 09:08:28;;;;;;;1.17;0.90;;;;;;;21.56;45.42;101685.91;10438434;28;20052;-74
2023/08/20 09:13:42;;;;;;;0.98;0.82;;;;;;;22.06;43.92;101682.53;10436968;28;20551;-74
2023/08/20 09:18:45;;;;;;;1.10;1.00;;;;;;;20.11;47.90;101686.84;10440097;28;20057;-74
2023/08/20 09:23:47;;;;;;;0.98;0.88;;;;;;;20.22;48.57;101676.22;10443771;28;20536;-72
2023/08/20 09:28:49;;;;;;;0.73;0.70;;;;;;;19.06;50.95;101685.53;10442778;28;20044;-71
2023/08/20 09:33:53;;;;;;;2.92;0.80;;;;;;;18.32;52.78;101686.50;10443306;28;20491;-73
2023/08/20 09:39:01;;;;;;;2.70;1.10;;;;;;;17.63;50.12;101679.97;10414559;28;20037;-74
2023/08/20 09:44:04;;;;;;;3.42;0.90;;;;;;;18.17;49.50;101670.13;10413269;28;20041;-72
2023/08/20 09:49:07;;;;;;;3.08;1.55;;;;;;;18.03;51.53;101672.88;10447631;28;20042;-73
2023/08/20 09:54:16;;;;;;;0.70;0.60;;;;;;;18.12;51.57;101664.69;10441802;28;20049;-72
2023/08/20 09:59:18;;;;;;;1.55;0.88;;;;;;;18.02;50.59;101659.31;10442911;28;20053;-73
2023/08/20 10:04:21;;;;;;;1.90;0.90;;;;;;;18.19;49.81;101658.72;10433249;28;20527;-72
2023/08/20 10:09:24;;;;;;;0.90;0.70;;;;;;;18.07;50.21;101651.72;10422510;28;20072;-72
2023/08/20 10:14:27;;;;;;;1.77;0.70;;;;;;;18.06;50.85;101660.38;10441563;28;20534;-72
2023/08/20 10:19:30;;;;;;;1.13;0.60;;;;;;;18.15;50.36;101652.94;10434468;28;20052;-71
2023/08/20 10:24:47;;;;;;;2.00;0.98;;;;;;;18.04;49.93;101663.41;10428607;28;20029;-71
2023/08/20 10:29:49;;;;;;;1.25;0.70;;;;;;;17.99;50.25;101657.16;10442002;28;20037;-71
2023/08/20 10:34:52;;;;;;;0.80;0.80;;;;;;;18.19;51.00;101653.97;10439400;28;20046;-71
2023/08/20 10:39:58;;;;;;;2.08;0.98;;;;;;;18.34;49.90;101653.69;10407218;28;20147;-71
2023/08/20 10:45:08;;;;;;;3.03;0.95;;;;;;;18.49;49.63;101655.31;10446198;28;20522;-72
2023/08/20 10:50:13;;;;;;;1.17;0.70;;;;;;;18.35;49.37;101646.97;10447964;28;20041;-70
2023/08/20 10:55:16;;;;;;;1.05;0.80;;;;;;;18.27;50.67;101660.78;10447907;28;20038;-73
2023/08/20 11:00:18;;;;;;;0.70;0.63;;;;;;;18.24;51.57;101651.13;10414129;28;20515;-71
2023/08/20 11:05:23;;;;;;;0.90;0.75;;;;;;;18.33;50.96;101638.13;10449549;28;20052;-71
2023/08/20 11:10:26;;;;;;;2.47;0.95;;;;;;;18.46;50.96;101638.44;10447548;28;20052;-71
2023/08/20 11:15:28;;;;;;;0.90;0.63;;;;;;;18.32;50.45;101650.38;10442198;28;20056;-71
2023/08/20 11:20:30;;;;;;;1.70;0.70;;;;;;;18.27;49.64;101628.28;10445768;28;20423;-71
2023/08/20 11:25:33;;;;;;;0.73;0.43;;;;;;;18.57;48.52;101629.59;10444356;28;20044;-71
2023/08/20 11:30:35;;;;;;;1.05;0.90;;;;;;;18.41;50.37;101638.56;10447110;28;20064;-71
2023/08/20 11:35:38;;;;;;;1.50;0.70;;;;;;;18.30;50.85;101624.88;10446598;28;20096;-71
2023/08/20 11:40:40;;;;;;;1.13;1.02;;;;;;;18.08;50.44;101639.47;10448643;28;20045;-71
2023/08/20 11:45:49;;;;;;;3.80;1.55;;;;;;;18.14;51.00;101612.41;10446073;28;20060;-71
2023/08/20 11:50:51;;;;;;;2.08;1.00;;;;;;;18.52;49.96;101610.22;10445689;28;20523;-72
2023/08/20 11:55:53;;;;;;;1.13;0.82;;;;;;;18.62;48.95;101615.56;10440168;28;20049;-72
2023/08/20 12:00:57;;;;;;;1.40;0.90;;;;;;;18.33;51.21;101626.19;10447488;28;20065;-72
2023/08/20 12:05:59;;;;;;;1.38;0.70;;;;;;;18.13;52.00;101610.78;10451353;28;20070;-72
2023/08/20 12:11:01;;;;;;;1.02;0.60;;;;;;;18.29;51.77;101603.78;10446974;28;20041;-74
2023/08/20 12:16:03;;;;;;;1.48;1.00;;;;;;;18.26;51.13;101592.47;10438499;28;20080;-72
2023/08/20 12:21:05;;;;;;;0.90;0.60;;;;;;;18.38;51.47;101601.91;10444297;28;20060;-75
2023/08/20 12:26:08;;;;;;;0.90;0.90;;;;;;;18.38;51.09;101596.34;10446068;28;20045;-72
2023/08/20 12:31:10;;;;;;;1.90;0.80;;;;;;;18.49;50.75;101598.91;10450833;28;20529;-72
2023/08/20 12:36:12;;;;;;;0.73;0.52;;;;;;;18.50;50.69;101604.16;10455719;28;20052;-72
2023/08/20 12:41:14;;;;;;;0.85;0.57;;;;;;;18.44;50.48;101599.84;10446091;28;20412;-72
2023/08/20 12:46:17;;;;;;;1.70;0.98;;;;;;;18.45;50.55;101593.16;10445355;28;20072;-72
2023/08/20 12:51:20;;;;;;;1.13;0.90;;;;;;;18.36;50.16;101581.94;10422404;28;20057;-73
2023/08/20 12:56:22;;;;;;;1.90;1.00;;;;;;;18.50;49.90;101586.66;10405022;28;20046;-71
2023/08/20 13:01:24;;;;;;;2.30;0.75;;;;;;;18.27;50.53;101594.09;10427759;28;20050;-72
2023/08/20 13:06:27;;;;;;;1.02;0.70;;;;;;;18.24;51.55;101566.94;10403120;28;20504;-71
2023/08/20 13:11:30;;;;;;;2.55;1.27;;;;;;;18.15;51.49;101579.91;10408206;28;20037;-72
2023/08/20 13:16:33;;;;;;;1.52;1.02;;;;;;;18.26;50.96;101571.06;10443374;28;20042;-73
2023/08/20 13:21:35;;;;;;;0.60;0.60;;;;;;;18.34;50.90;101564.75;10446099;28;20052;-73
2023/08/20 13:26:37;;;;;;;1.88;0.82;;;;;;;18.30;51.09;101569.28;10443113;28;20056;-73
2023/08/20 13:31:39;;;;;;;1.13;0.88;;;;;;;18.39;50.19;101569.38;10445427;28;20045;-72
2023/08/20 13:36:42;;;;;;;1.50;0.73;;;;;;;18.17;52.22;101559.00;10434260;28;20041;-72
2023/08/20 13:41:45;;;;;;;1.85;1.15;;;;;;;18.19;51.25;101556.75;10445708;28;20045;-72
2023/08/20 13:46:48;;;;;;;0.82;0.70;;;;;;;18.21;50.76;101551.69;10441923;28;20054;-72
2023/08/20 13:51:50;;;;;;;1.50;0.93;;;;;;;18.27;52.19;101550.47;10443141;28;20041;-73
2023/08/20 13:56:52;;;;;;;1.88;1.00;;;;;;;18.26;53.61;101551.59;10441294;28;20405;-73
2023/08/20 14:01:54;;;;;;;1.92;0.90;;;;;;;18.10;52.24;101546.69;10443506;28;20045;-72
2023/08/20 14:06:57;;;;;;;1.77;0.70;;;;;;;18.19;52.57;101553.97;10444010;28;20052;-72
2023/08/20 14:11:59;;;;;;;1.25;0.90;;;;;;;18.01;53.18;101549.34;10442555;28;20045;-72
2023/08/20 14:17:02;;;;;;;2.10;0.75;;;;;;;18.18;52.65;101551.50;10443838;28;20057;-72
2023/08/20 14:22:05;;;;;;;1.42;0.80;;;;;;;18.26;53.50;101554.38;10420783;28;20045;-72
2023/08/20 14:27:10;;;;;;;1.52;0.65;;;;;;;18.16;52.58;101551.00;10409360;28;20053;-72
2023/08/20 14:32:12;;;;;;;0.70;0.70;;;;;;;18.14;51.90;101542.16;10410020;28;20046;-72
2023/08/20 14:37:14;;;;;;;0.70;0.70;;;;;;;18.07;51.87;101532.28;10421907;28;20048;-72
2023/08/20 14:42:17;;;;;;;2.38;0.50;;;;;;;18.00;52.24;101534.63;10450216;28;20326;-72
2023/08/20 14:47:19;;;;;;;0.75;0.55;;;;;;;18.02;53.10;101531.56;10444694;28;20038;-75
2023/08/20 14:52:21;;;;;;;0.95;0.85;;;;;;;18.00;53.38;101533.81;10446755;28;20045;-76
2023/08/20 14:57:24;;;;;;;1.27;1.00;;;;;;;17.89;54.34;101547.09;10450238;28;20037;-76
2023/08/20 15:02:26;;;;;;;0.88;0.82;;;;;;;17.94;54.39;101535.88;10447188;28;20500;-76
2023/08/20 15:07:28;;;;;;;2.67;1.00;;;;;;;17.87;54.67;101524.34;10416255;28;20033;-74
2023/08/20 15:12:35;;;;;;;3.70;1.13;;;;;;;17.90;54.06;101528.50;10448524;28;20045;-71
2023/08/20 15:17:37;;;;;;;4.73;0.83;;;;;;;17.77;55.25;101513.47;10440070;28;20475;-73
2023/08/20 15:22:40;;;;;;;1.27;0.98;;;;;;;17.78;55.44;101510.38;10448436;28;20041;-72
2023/08/20 15:27:43;;;;;;;1.48;1.00;;;;;;;17.75;55.73;101499.91;10447554;28;20496;-72
2023/08/20 15:32:45;;;;;;;1.40;1.00;;;;;;;17.74;55.87;101514.91;10444750;28;20503;-73
2023/08/20 15:37:47;;;;;;;1.33;0.85;;;;;;;17.53;56.82;101508.09;10446583;28;20049;-73
2023/08/20 15:42:49;;;;;;;1.90;1.20;;;;;;;17.62;57.40;101506.22;10440852;28;20057;-73
2023/08/20 15:47:51;;;;;;;1.10;1.00;;;;;;;17.53;56.92;101508.09;10446744;28;20504;-73
2023/08/20 15:52:54;;;;;;;0.60;0.60;;;;;;;17.51;56.90;101502.00;10447681;28;20042;-73
2023/08/20 15:57:56;;;;;;;1.25;0.75;;;;;;;17.47;57.89;101492.66;10418676;28;20058;-73
2023/08/20 16:02:59;;;;;;;1.63;1.10;;;;;;;17.34;58.03;101499.81;10427875;28;20041;-72
2023/08/20 16:08:01;;;;;;;1.45;0.82;;;;;;;17.36;58.92;101507.84;10435630;28;20041;-72
2023/08/20 16:13:05;;;;;;;1.40;1.10;;;;;;;17.44;58.33;101505.19;10441501;28;20428;-72
2023/08/20 16:18:07;;;;;;;0.82;0.70;;;;;;;17.43;58.83;101502.72;10441058;28;20041;-72
2023/08/20 16:23:10;;;;;;;1.25;1.00;;;;;;;17.43;58.99;101502.72;10446913;28;20041;-72
2023/08/20 16:28:12;;;;;;;1.23;1.00;;;;;;;17.17;59.76;101505.94;10461865;28;20415;-73
2023/08/20 16:33:14;;;;;;;2.25;1.38;;;;;;;17.08;60.08;101507.78;10445347;28;20060;-72
2023/08/20 16:38:17;;;;;;;2.33;0.80;;;;;;;17.06;60.53;101506.44;10445170;28;20301;-72
2023/08/20 16:43:19;;;;;;;1.77;0.90;;;;;;;17.02;60.87;101500.69;10419593;28;20042;-72
2023/08/20 16:48:21;;;;;;;3.30;1.45;;;;;;;16.98;61.13;101494.09;10414921;28;20049;-72
2023/08/20 16:53:23;;;;;;;1.33;1.00;;;;;;;16.72;62.07;101490.09;10436933;28;20064;-74
2023/08/20 16:58:26;;;;;;;1.30;0.80;;;;;;;16.67;62.91;101495.72;10440359;28;20060;-75
2023/08/20 17:03:28;;;;;;;1.35;1.08;;;;;;;16.48;62.62;101504.00;10429240;28;20412;-73
2023/08/20 17:08:31;;;;;;;1.42;0.70;;;;;;;16.40;62.29;101504.69;10438529;28;20037;-73
2023/08/20 17:13:35;;;;;;;1.25;1.00;;;;;;;16.28;62.21;101499.56;10458807;28;20042;-73
2023/08/20 17:18:38;;;;;;;1.80;0.70;;;;;;;16.16;61.48;101502.81;10414447;28;20048;-74
2023/08/20 17:23:40;;;;;;;1.65;0.93;;;;;;;16.19;61.58;101501.38;10474836;28;20048;-74
2023/08/20 17:28:42;;;;;;;2.35;0.82;;;;;;;16.08;61.54;101491.56;10444270;28;20042;-74
2023/08/20 17:33:45;;;;;;;0.93;0.85;;;;;;;15.98;61.56;101498.06;10444569;28;20045;-73
2023/08/20 17:38:47;;;;;;;1.30;0.93;;;;;;;15.93;61.85;101492.56;10436907;28;20034;-73
2023/08/20 17:43:49;;;;;;;1.50;1.23;;;;;;;16.00;62.45;101497.75;10442989;28;20052;-72
2023/08/20 17:48:51;;;;;;;2.33;1.20;;;;;;;15.94;62.70;101497.81;10442047;28;20034;-73
2023/08/20 17:53:54;;;;;;;1.35;1.08;;;;;;;15.90;62.56;101496.75;10443525;28;20041;-72
2023/08/20 17:58:56;;;;;;;3.13;1.20;;;;;;;15.74;63.59;101502.78;10436228;28;20060;-72
2023/08/20 18:03:58;;;;;;;2.08;1.52;;;;;;;15.60;64.67;101510.94;10448875;28;20037;-73
2023/08/20 18:09:00;;;;;;;2.58;1.80;;;;;;;15.51;66.12;101504.41;10446218;28;20516;-73
2023/08/20 18:14:03;;;;;;;2.35;1.60;;;;;;;15.39;67.07;101504.78;10444627;28;20061;-72
2023/08/20 18:19:06;;;;;;;2.38;1.33;;;;;;;15.28;67.90;101504.09;10448580;28;20496;-73
2023/08/20 18:24:08;;;;;;;2.63;1.20;;;;;;;15.32;67.80;101507.91;10447742;28;20053;-73
2023/08/20 18:29:10;;;;;;;2.50;1.40;;;;;;;15.38;67.69;101512.25;10450440;28;20055;-72
2023/08/20 18:34:12;;;;;;;2.63;1.23;;;;;;;15.37;67.51;101513.38;10448061;28;20049;-71
2023/08/20 18:39:15;;;;;;;2.08;1.20;;;;;;;15.29;68.01;101510.44;10449343;28;20132;-73
2023/08/20 18:44:17;;;;;;;1.50;1.30;;;;;;;15.30;68.07;101499.06;10467723;28;20045;-73
2023/08/20 18:49:19;;;;;;;1.98;1.30;;;;;;;15.34;67.70;101499.31;10439152;28;20051;-73
2023/08/20 18:54:21;;;;;;;2.28;1.70;;;;;;;15.23;68.29;101492.22;10437340;28;20045;-73
2023/08/20 18:59:24;;;;;;;1.73;1.60;;;;;;;15.21;68.69;101498.06;10431362;28;20046;-73
2023/08/20 19:04:26;;;;;;;4.88;1.90;;;;;;;15.17;68.60;101491.47;10439425;28;20056;-73
2023/08/20 19:09:28;;;;;;;2.40;1.23;;;;;;;15.15;69.13;101490.94;10443969;28;20037;-73
2023/08/20 19:14:30;;;;;;;3.15;1.30;;;;;;;15.10;69.81;101482.69;10449442;28;20041;-74
2023/08/20 19:19:33;;;;;;;2.72;1.90;;;;;;;15.06;70.19;101484.38;10439533;28;20041;-73
2023/08/20 19:24:35;;;;;;;3.30;2.00;;;;;;;15.04;70.16;101489.38;10441842;28;20631;-73
2023/08/20 19:29:42;;;;;;;2.70;1.63;;;;;;;15.13;70.14;101495.94;10441996;28;20491;-73
2023/08/20 19:34:44;;;;;;;2.20;1.60;;;;;;;15.22;70.02;101482.28;10438252;28;20420;-73
2023/08/20 19:39:47;;;;;;;3.58;1.48;;;;;;;15.08;70.75;101485.72;10441924;28;20042;-74
2023/08/20 19:44:49;;;;;;;3.03;1.67;;;;;;;15.24;70.62;101486.41;10422876;28;20053;-72
2023/08/20 19:49:51;;;;;;;4.38;1.40;;;;;;;15.27;69.80;101482.22;10434301;28;20388;-73
2023/08/20 19:54:54;;;;;;;2.00;1.80;;;;;;;15.18;70.17;101475.69;10445985;28;20054;-73
2023/08/20 19:59:56;;;;;;;4.28;2.00;;;;;;;15.16;70.55;101478.75;10447614;28;20061;-92
2023/08/20 20:04:58;;;;;;;2.90;1.75;;;;;;;15.22;70.10;101477.56;10431717;28;20412;-96
2023/08/20 20:10:00;;;;;;;4.28;2.50;;;;;;;15.17;70.09;101487.88;10414842;28;20034;-92
2023/08/20 20:15:03;;;;;;;3.35;2.13;;;;;;;15.07;70.63;101486.84;10476197;28;20511;-85
2023/08/20 20:20:11;;;;;;;5.95;2.95;;;;;;;15.02;71.20;101488.84;10439071;28;20041;-71
2023/08/20 20:25:13;;;;;;;4.07;2.05;;;;;;;15.15;71.59;101492.88;10437721;28;20523;-71
2023/08/20 20:30:15;;;;;;;3.38;2.17;;;;;;;15.20;71.37;101493.63;10437984;28;20041;-72
2023/08/20 20:35:17;;;;;;;3.53;2.17;;;;;;;15.08;71.47;101496.78;10431503;28;20049;-71
2023/08/20 20:40:20;;;;;;;4.93;2.60;;;;;;;15.00;72.27;101497.41;10438383;28;20519;-71
2023/08/20 20:45:22;;;;;;;4.03;2.45;;;;;;;14.93;71.89;101496.13;10439192;28;20164;-72
2023/08/20 20:50:24;;;;;;;7.03;3.00;;;;;;;14.82;72.77;101491.78;10427265;28;20045;-70
2023/08/20 20:55:27;;;;;;;5.32;2.40;;;;;;;14.75;72.54;101490.19;10436884;28;20049;-70
2023/08/20 21:00:30;;;;;;;4.63;2.83;;;;;;;14.69;73.08;101488.56;10440212;28;20566;-70
2023/08/20 21:05:32;;;;;;;4.90;2.78;;;;;;;14.67;73.06;101485.25;10439505;28;20033;-70
2023/08/20 21:10:35;;;;;;;4.78;3.47;;;;;;;14.58;73.21;101489.75;10440122;28;20125;-70
2023/08/20 21:15:37;;;;;;;6.57;3.20;;;;;;;14.38;73.98;101490.66;10441197;28;20052;-71
2023/08/20 21:20:40;;;;;;;5.65;2.58;;;;;;;14.32;74.62;101491.00;10443676;28;20041;-71
2023/08/20 21:25:42;;;;;;;4.50;2.60;;;;;;;14.33;74.30;101492.63;10438661;28;20037;-71
2023/08/20 21:30:44;;;;;;;5.25;2.10;;;;;;;14.09;75.07;101487.81;10434589;28;20049;-70
2023/08/20 21:35:47;;;;;;;6.60;2.00;;;;;;;14.04;75.79;101489.75;10434809;28;20044;-70
2023/08/20 21:40:49;;;;;;;2.33;1.60;;;;;;;14.08;75.71;101493.63;10435922;28;20488;-70
2023/08/20 21:45:51;;;;;;;2.00;1.80;;;;;;;13.94;76.84;101484.31;10440820;28;20530;-71
2023/08/20 21:50:53;;;;;;;2.08;1.60;;;;;;;13.95;77.08;101481.25;10437582;28;20551;-71
2023/08/20 21:55:56;;;;;;;1.80;1.13;;;;;;;14.21;76.19;101470.88;10438432;28;20038;-72
2023/08/20 22:01:03;;;;;;;2.78;1.70;;;;;;;14.26;75.87;101465.34;10441477;28;20045;-71
2023/08/20 22:06:05;;;;;;;1.70;1.43;;;;;;;14.39;75.43;101463.88;10434940;28;20566;-71
2023/08/20 22:11:07;;;;;;;3.03;1.48;;;;;;;14.30;75.74;101457.31;10439204;28;20064;-71
2023/08/20 22:16:09;;;;;;;3.78;1.70;;;;;;;14.32;76.22;101450.41;10439896;28;20058;-70
2023/08/20 22:21:11;;;;;;;3.72;2.15;;;;;;;14.17;76.70;101456.00;10425622;28;20048;-70
2023/08/20 22:26:14;;;;;;;2.72;1.80;;;;;;;14.28;76.52;101446.56;10439381;28;20044;-71
2023/08/20 22:31:16;;;;;;;5.03;2.10;;;;;;;14.10;76.74;101456.34;10441104;28;20088;-70
2023/08/20 22:36:19;;;;;;;2.55;1.80;;;;;;;14.03;77.11;101458.56;10435585;28;20500;-70
2023/08/20 22:41:21;;;;;;;2.85;2.00;;;;;;;13.93;78.39;101452.31;10444665;28;20053;-70
2023/08/20 22:46:24;;;;;;;5.50;2.28;;;;;;;13.89;78.54;101463.09;10444849;28;20471;-70
2023/08/20 22:51:26;;;;;;;7.55;2.50;;;;;;;14.02;77.87;101464.38;10445706;28;20044;-70
2023/08/20 22:56:29;;;;;;;3.53;2.40;;;;;;;13.99;77.94;101449.22;10438569;28;20053;-70
2023/08/20 23:01:31;;;;;;;3.22;2.22;;;;;;;14.04;77.71;101451.13;10446135;28;20053;-70
2023/08/20 23:06:33;;;;;;;4.47;2.78;;;;;;;14.26;77.51;101450.72;10446643;28;20048;-70
2023/08/20 23:11:35;;;;;;;7.53;2.70;;;;;;;13.95;78.07;101450.09;10440886;28;20711;-70